Terminal Aerodrome Forecast
Issued by NWS Lake Charles, LA

Home | Current Version | Previous Version | Text Only | Print | Product List | Glossary On
Versions: 1 2 3 4 5 6 7 8 9 10 11 12 13 14 15 16 17 18 19
000
FTUS44 KLCH 291135
TAFAEX
TAF
KAEX 291135Z 2912/3012 14012G18KT P6SM OVC015
     FM291400 15014G20KT P6SM BKN025
     FM291700 16016G24KT P6SM SCT025 BKN050
     FM300000 16012G18KT P6SM VCSH BKN030
     FM300600 15010G16KT 4SM SHRA SCT009 OVC020=

USA.gov is the U.S. government's official web portal to all federal, state and local government web resources and services.